Time;durP1;ratioP1;P1;durP2;ratioP2;P2;SDS_P1;SDS_P2;PMS_P1;PMS_P2;Temp;Humidity;BMP_temperature;BMP_pressure;BME280_temperature;BME280_humidity;BME280_pressure;Samples;Min_cycle;Max_cycle;Signal;HPM_P1;HPM_P2
2021/11/14 00:01:11;;;;;;;0.75;0.63;;;16.60;65.10;;;;;;5105568;28;20028;-37
2021/11/14 00:03:37;;;;;;;0.80;0.52;;;16.50;65.10;;;;;;5105477;28;20052;-37
2021/11/14 00:06:04;;;;;;;0.50;0.50;;;16.50;65.00;;;;;;5104033;28;20047;-37
2021/11/14 00:08:30;;;;;;;0.50;0.50;;;16.50;64.90;;;;;;5097815;28;20036;-38
2021/11/14 00:10:58;;;;;;;1.15;0.50;;;16.50;64.90;;;;;;5101768;28;20039;-37
2021/11/14 00:13:25;;;;;;;0.50;0.45;;;16.50;65.30;;;;;;5105398;28;20028;-37
2021/11/14 00:15:51;;;;;;;0.57;0.50;;;16.60;65.50;;;;;;5105306;28;20024;-38
2021/11/14 00:18:17;;;;;;;0.50;0.50;;;16.60;65.60;;;;;;5105064;28;20085;-38
2021/11/14 00:20:44;;;;;;;0.82;0.40;;;16.60;65.40;;;;;;5105249;28;20390;-38
2021/11/14 00:23:10;;;;;;;0.57;0.50;;;16.50;65.30;;;;;;5087169;28;20028;-38
2021/11/14 00:25:36;;;;;;;0.30;0.20;;;16.50;65.20;;;;;;5104921;28;20404;-37
2021/11/14 00:28:03;;;;;;;0.47;0.47;;;16.50;65.20;;;;;;5103266;28;20269;-38
2021/11/14 00:30:29;;;;;;;0.95;0.47;;;16.50;65.30;;;;;;5105132;28;20030;-38
2021/11/14 00:32:55;;;;;;;0.40;0.40;;;16.40;65.10;;;;;;5104877;28;20028;-38
2021/11/14 00:35:21;;;;;;;0.40;0.40;;;16.50;65.20;;;;;;5104469;28;20044;-38
2021/11/14 00:37:48;;;;;;;0.75;0.40;;;16.50;66.00;;;;;;5103901;28;20054;-37
2021/11/14 00:40:22;;;;;;;0.40;0.40;;;16.60;66.00;;;;;;5093909;28;20089;-38
2021/11/14 00:42:49;;;;;;;0.40;0.38;;;16.60;65.80;;;;;;5084401;28;20020;-37
2021/11/14 00:45:15;;;;;;;0.50;0.40;;;16.60;65.70;;;;;;5083080;28;20828;-38
2021/11/14 00:47:43;;;;;;;0.43;0.40;;;16.60;65.60;;;;;;5083886;28;20070;-37
2021/11/14 00:50:11;;;;;;;0.40;0.40;;;16.50;65.50;;;;;;5083622;28;20028;-37
2021/11/14 00:52:41;;;;;;;0.57;0.50;;;16.50;65.50;;;;;;5084293;28;20354;-38
2021/11/14 00:55:08;;;;;;;0.77;0.50;;;16.50;65.40;;;;;;5084217;28;20032;-38
2021/11/14 00:57:34;;;;;;;0.40;0.32;;;16.40;65.50;;;;;;5083754;28;20560;-37
2021/11/14 01:00:00;;;;;;;0.43;0.43;;;16.40;65.50;;;;;;5084192;28;20087;-37
2021/11/14 01:02:27;;;;;;;0.50;0.40;;;16.50;66.10;;;;;;5082775;28;20028;-37
2021/11/14 01:04:53;;;;;;;0.77;0.40;;;16.60;66.30;;;;;;5083789;28;20020;-38
2021/11/14 01:07:19;;;;;;;0.82;0.50;;;16.60;65.90;;;;;;5083780;28;20059;-37
2021/11/14 01:09:45;;;;;;;0.52;0.38;;;16.60;65.80;;;;;;5084371;28;20036;-38
2021/11/14 01:12:11;;;;;;;0.40;0.40;;;16.60;65.70;;;;;;5083478;28;20020;-38
2021/11/14 01:14:37;;;;;;;0.57;0.40;;;16.50;65.60;;;;;;5083726;28;20024;-37
2021/11/14 01:17:04;;;;;;;1.02;0.70;;;16.50;65.70;;;;;;5093019;28;20024;-38
2021/11/14 01:19:30;;;;;;;0.70;0.50;;;16.50;65.60;;;;;;5102319;28;20078;-37
2021/11/14 01:21:56;;;;;;;1.02;0.40;;;16.50;65.60;;;;;;5104109;28;20032;-37
2021/11/14 01:24:22;;;;;;;0.57;0.50;;;16.50;65.60;;;;;;5103897;28;20035;-38
2021/11/14 01:26:48;;;;;;;0.57;0.45;;;16.50;66.20;;;;;;5103378;28;20027;-37
2021/11/14 01:29:14;;;;;;;0.52;0.45;;;16.60;66.20;;;;;;5103386;28;20043;-37
2021/11/14 01:31:41;;;;;;;0.50;0.40;;;16.60;66.10;;;;;;5103277;28;20097;-37
2021/11/14 01:34:07;;;;;;;0.32;0.30;;;16.60;65.90;;;;;;5103589;28;20024;-38
2021/11/14 01:36:35;;;;;;;2.25;0.47;;;16.60;65.80;;;;;;5102400;28;20093;-38
2021/11/14 01:39:01;;;;;;;0.55;0.50;;;16.50;65.80;;;;;;5101664;28;20024;-37
2021/11/14 01:41:28;;;;;;;0.57;0.50;;;16.50;65.80;;;;;;5083077;28;20024;-37
2021/11/14 01:43:54;;;;;;;1.13;0.50;;;16.50;65.80;;;;;;5083025;28;20039;-37
2021/11/14 01:46:20;;;;;;;0.80;0.60;;;16.40;65.70;;;;;;5081638;28;20084;-37
2021/11/14 01:48:47;;;;;;;0.88;0.55;;;16.40;65.70;;;;;;5082891;28;20044;-38
2021/11/14 01:51:13;;;;;;;1.42;0.60;;;16.50;66.30;;;;;;5083088;28;20017;-37
2021/11/14 01:53:40;;;;;;;0.65;0.60;;;16.60;66.30;;;;;;5082952;28;20043;-38
2021/11/14 01:56:08;;;;;;;0.82;0.38;;;16.60;66.00;;;;;;5081422;28;20051;-37
2021/11/14 01:58:34;;;;;;;0.60;0.60;;;16.60;65.80;;;;;;5082549;28;20848;-38
2021/11/14 02:01:14;;;;;;;0.93;0.68;;;16.50;65.80;;;;;;5082489;28;20035;-38
2021/11/14 02:03:43;;;;;;;0.57;0.45;;;16.50;65.80;;;;;;5082452;28;20040;-38
2021/11/14 02:06:10;;;;;;;0.93;0.50;;;16.40;65.80;;;;;;5086295;28;20048;-38
2021/11/14 02:08:37;;;;;;;1.00;0.70;;;16.40;65.80;;;;;;5089084;28;20042;-38
2021/11/14 02:11:03;;;;;;;0.50;0.43;;;16.50;66.30;;;;;;5085063;28;20821;-37
2021/11/14 02:13:30;;;;;;;0.45;0.32;;;16.60;66.30;;;;;;5082698;28;20033;-38
2021/11/14 02:15:56;;;;;;;0.60;0.50;;;16.60;66.10;;;;;;5082674;28;20826;-38
2021/11/14 02:18:23;;;;;;;0.80;0.57;;;16.60;66.60;;;;;;5082703;28;20025;-37
2021/11/14 02:20:49;;;;;;;0.73;0.68;;;16.50;65.90;;;;;;5082579;28;20041;-37
2021/11/14 02:23:16;;;;;;;0.60;0.60;;;16.50;65.90;;;;;;5081173;28;20036;-38
2021/11/14 02:25:44;;;;;;;1.00;0.70;;;16.50;65.90;;;;;;5082227;28;20035;-37
2021/11/14 02:28:10;;;;;;;1.10;0.65;;;16.50;65.90;;;;;;5082389;28;20033;-37
2021/11/14 02:30:37;;;;;;;0.60;0.50;;;16.40;66.10;;;;;;5084541;28;20052;-38
2021/11/14 02:33:03;;;;;;;0.90;0.65;;;16.50;66.50;;;;;;5102665;28;20020;-37
2021/11/14 02:35:29;;;;;;;0.75;0.63;;;16.60;66.30;;;;;;5102663;28;20028;-37
2021/11/14 02:37:55;;;;;;;1.15;0.70;;;16.60;66.00;;;;;;5101729;28;20061;-37
2021/11/14 02:40:22;;;;;;;1.75;0.80;;;16.60;66.00;;;;;;5089112;28;20035;-38
2021/11/14 02:42:48;;;;;;;1.13;0.57;;;16.50;65.90;;;;;;5082144;28;20035;-37
2021/11/14 02:45:16;;;;;;;0.65;0.55;;;16.50;65.90;;;;;;5081085;28;20052;-38
2021/11/14 02:47:42;;;;;;;1.27;0.80;;;16.40;65.90;;;;;;5082167;28;20032;-37
2021/11/14 02:50:08;;;;;;;1.30;0.70;;;16.40;66.00;;;;;;5080986;28;20088;-37
2021/11/14 02:52:35;;;;;;;1.13;0.63;;;16.50;66.50;;;;;;5082376;28;20021;-38
2021/11/14 02:55:01;;;;;;;1.30;0.80;;;16.60;66.50;;;;;;5082188;28;20037;-38
2021/11/14 02:57:27;;;;;;;0.80;0.60;;;16.60;66.20;;;;;;5081872;28;20064;-38
2021/11/14 02:59:53;;;;;;;1.42;0.75;;;16.60;66.10;;;;;;5081907;28;20031;-38
2021/11/14 03:02:19;;;;;;;1.08;0.70;;;16.50;65.90;;;;;;5082224;28;20032;-38
2021/11/14 03:04:45;;;;;;;1.42;0.70;;;16.50;66.00;;;;;;5082069;28;20628;-38
2021/11/14 03:07:12;;;;;;;1.58;0.70;;;16.50;66.10;;;;;;5082081;28;20044;-37
2021/11/14 03:09:39;;;;;;;0.95;0.68;;;16.40;65.90;;;;;;5091648;28;20075;-38
2021/11/14 03:12:05;;;;;;;0.65;0.63;;;16.50;66.30;;;;;;5081879;28;20093;-38
2021/11/14 03:14:31;;;;;;;1.45;0.88;;;16.50;66.70;;;;;;5085161;28;20056;-37
2021/11/14 03:16:58;;;;;;;0.60;0.60;;;16.60;66.30;;;;;;5094553;28;20028;-38
2021/11/14 03:19:24;;;;;;;0.80;0.70;;;16.60;66.10;;;;;;5105815;28;20060;-37
2021/11/14 03:21:50;;;;;;;0.73;0.70;;;16.50;65.90;;;;;;5106300;28;20024;-38
2021/11/14 03:24:16;;;;;;;1.08;0.80;;;16.50;66.00;;;;;;5104772;28;20032;-38
2021/11/14 03:26:43;;;;;;;1.02;0.80;;;16.40;66.00;;;;;;5105655;28;20028;-38
2021/11/14 03:29:09;;;;;;;1.20;0.80;;;16.40;66.00;;;;;;5106112;28;20063;-38
2021/11/14 03:31:35;;;;;;;1.13;0.88;;;16.40;66.10;;;;;;5105745;28;20175;-38
2021/11/14 03:34:01;;;;;;;1.17;0.80;;;16.40;66.30;;;;;;5106046;28;20023;-38
2021/11/14 03:36:28;;;;;;;1.15;0.80;;;16.50;66.60;;;;;;5106012;28;20081;-38
2021/11/14 03:38:56;;;;;;;1.27;0.95;;;16.60;66.30;;;;;;5105257;28;20028;-38
2021/11/14 03:41:33;;;;;;;0.90;0.80;;;16.60;66.10;;;;;;5085063;28;20025;-38
2021/11/14 03:44:00;;;;;;;1.27;0.80;;;16.50;66.00;;;;;;5085594;28;20040;-38
2021/11/14 03:46:26;;;;;;;1.17;0.88;;;16.50;66.00;;;;;;5089691;28;20032;-38
2021/11/14 03:48:53;;;;;;;1.42;0.90;;;16.40;66.10;;;;;;5105640;28;20105;-38
2021/11/14 03:51:19;;;;;;;1.08;0.80;;;16.40;66.10;;;;;;5104890;28;20024;-38
2021/11/14 03:53:46;;;;;;;1.10;0.80;;;16.50;66.60;;;;;;5105412;28;20036;-37
2021/11/14 03:56:12;;;;;;;1.52;0.80;;;16.60;66.60;;;;;;5105256;28;20039;-38
2021/11/14 03:58:39;;;;;;;0.90;0.70;;;16.60;66.20;;;;;;5105591;28;20059;-38
2021/11/14 04:01:08;;;;;;;1.00;0.70;;;16.60;66.00;;;;;;5105318;28;20024;-38
2021/11/14 04:03:35;;;;;;;2.10;0.90;;;16.50;66.00;;;;;;5105350;28;20594;-38
2021/11/14 04:06:01;;;;;;;1.80;0.88;;;16.50;66.00;;;;;;5099860;28;20049;-38
2021/11/14 04:08:27;;;;;;;1.88;0.90;;;16.50;66.10;;;;;;5090744;28;20044;-38
2021/11/14 04:10:55;;;;;;;1.67;0.98;;;16.40;66.00;;;;;;5087154;28;20024;-38
2021/11/14 04:13:21;;;;;;;1.65;1.00;;;16.40;66.20;;;;;;5084867;28;20028;-38
2021/11/14 04:15:48;;;;;;;1.27;0.90;;;16.50;66.60;;;;;;5085009;28;20039;-38
2021/11/14 04:18:14;;;;;;;1.05;0.52;;;16.60;66.40;;;;;;5104044;28;20031;-38
2021/11/14 04:20:41;;;;;;;1.00;0.88;;;16.60;66.10;;;;;;5104985;28;20024;-37
2021/11/14 04:23:08;;;;;;;1.25;0.82;;;16.50;66.00;;;;;;5104960;28;20077;-37
2021/11/14 04:25:34;;;;;;;0.60;0.60;;;16.50;66.10;;;;;;5102293;28;20020;-38
2021/11/14 04:28:01;;;;;;;0.83;0.63;;;16.40;66.00;;;;;;5104582;28;20126;-38
2021/11/14 04:30:27;;;;;;;2.47;1.10;;;16.40;66.00;;;;;;5104708;28;20044;-38
2021/11/14 04:32:54;;;;;;;1.20;0.80;;;16.40;66.20;;;;;;5105087;28;20099;-38
2021/11/14 04:35:21;;;;;;;1.05;0.80;;;16.50;66.60;;;;;;5104908;28;20028;-38
2021/11/14 04:37:48;;;;;;;0.73;0.63;;;16.60;66.50;;;;;;5103668;28;20024;-37
2021/11/14 04:40:16;;;;;;;1.05;0.70;;;16.60;66.10;;;;;;5095350;28;20051;-38
2021/11/14 04:42:42;;;;;;;0.95;0.77;;;16.60;66.00;;;;;;5104159;28;20017;-37
2021/11/14 04:45:08;;;;;;;1.95;0.77;;;16.50;66.10;;;;;;5103520;28;20024;-38
2021/11/14 04:47:35;;;;;;;1.08;0.73;;;16.50;66.10;;;;;;5090799;28;20025;-39
2021/11/14 04:50:01;;;;;;;0.88;0.60;;;16.40;66.10;;;;;;5084378;28;20092;-38
2021/11/14 04:52:27;;;;;;;0.80;0.80;;;16.40;66.10;;;;;;5083736;28;20033;-38
2021/11/14 04:54:53;;;;;;;0.70;0.70;;;16.50;66.30;;;;;;5084289;28;20123;-37
2021/11/14 04:57:19;;;;;;;1.10;0.77;;;16.50;66.50;;;;;;5083881;28;20021;-38
2021/11/14 04:59:46;;;;;;;0.88;0.70;;;16.60;66.30;;;;;;5084161;28;20029;-38
2021/11/14 05:02:12;;;;;;;1.60;1.00;;;16.50;66.00;;;;;;5083936;28;20101;-38
2021/11/14 05:04:38;;;;;;;3.67;0.85;;;16.50;66.00;;;;;;5083957;28;20028;-38
2021/11/14 05:07:04;;;;;;;1.20;0.82;;;16.40;66.00;;;;;;5083780;28;20053;-38
2021/11/14 05:09:31;;;;;;;1.57;1.10;;;16.40;66.10;;;;;;5093269;28;20036;-37
2021/11/14 05:11:57;;;;;;;1.25;0.85;;;16.40;66.10;;;;;;5083561;28;20280;-38
2021/11/14 05:14:23;;;;;;;1.23;0.80;;;16.40;66.40;;;;;;5083982;28;20129;-38
2021/11/14 05:16:49;;;;;;;0.82;0.70;;;16.50;66.40;;;;;;5091008;28;20031;-38
2021/11/14 05:19:15;;;;;;;1.05;0.80;;;16.50;66.10;;;;;;5104155;28;20036;-38
2021/11/14 05:21:41;;;;;;;1.95;0.88;;;16.50;66.00;;;;;;5103340;28;20020;-38
2021/11/14 05:24:08;;;;;;;1.10;0.90;;;16.50;66.00;;;;;;5103785;28;20024;-38
2021/11/14 05:26:34;;;;;;;1.30;0.90;;;16.40;66.00;;;;;;5103785;28;20024;-38
2021/11/14 05:29:01;;;;;;;1.63;1.08;;;16.40;66.80;;;;;;5103800;28;20036;-38
2021/11/14 05:31:27;;;;;;;2.50;0.87;;;16.40;66.20;;;;;;5103562;28;20035;-38
2021/11/14 05:33:53;;;;;;;1.65;0.82;;;16.50;66.30;;;;;;5103899;28;20052;-38
2021/11/14 05:36:19;;;;;;;0.93;0.70;;;16.50;66.20;;;;;;5103421;28;20039;-38
2021/11/14 05:38:45;;;;;;;1.00;0.80;;;16.50;66.00;;;;;;5102969;28;20051;-38
2021/11/14 05:41:11;;;;;;;1.05;0.80;;;16.50;65.90;;;;;;5084542;28;20077;-38
2021/11/14 05:43:38;;;;;;;0.82;0.80;;;16.50;66.00;;;;;;5083186;28;20572;-38
2021/11/14 05:46:04;;;;;;;1.23;0.90;;;16.40;66.00;;;;;;5084398;28;20029;-38
2021/11/14 05:48:30;;;;;;;0.82;0.73;;;16.40;66.10;;;;;;5103293;28;20038;-38
2021/11/14 05:50:58;;;;;;;1.17;0.82;;;16.50;66.50;;;;;;5103640;28;20032;-38
2021/11/14 05:53:25;;;;;;;1.17;0.95;;;16.50;66.30;;;;;;5103164;28;20040;-38
2021/11/14 05:55:51;;;;;;;0.83;0.57;;;16.60;66.10;;;;;;5103474;28;20509;-38
2021/11/14 05:58:26;;;;;;;1.40;0.73;;;16.50;65.90;;;;;;5103419;28;20024;-38
2021/11/14 06:03:32;;;;;;;1.25;0.93;;;16.40;66.00;;;;;;5103358;28;20084;-38
2021/11/14 06:05:59;;;;;;;2.00;0.98;;;16.40;66.00;;;;;;5103157;28;20052;-38
2021/11/14 06:08:25;;;;;;;1.00;0.80;;;16.40;66.20;;;;;;5102021;28;20048;-38
2021/11/14 06:10:52;;;;;;;1.30;0.90;;;16.50;66.40;;;;;;5087248;28;20031;-39
2021/11/14 06:13:25;;;;;;;0.70;0.70;;;16.50;66.10;;;;;;5081107;28;20059;-38
2021/11/14 06:15:51;;;;;;;1.00;0.90;;;16.50;66.00;;;;;;5082969;28;20501;-37
2021/11/14 06:18:17;;;;;;;2.15;1.20;;;16.50;65.90;;;;;;5102338;28;20545;-38
2021/11/14 06:20:43;;;;;;;1.40;0.90;;;16.40;65.90;;;;;;5103274;28;20039;-38
2021/11/14 06:23:10;;;;;;;1.42;0.82;;;16.40;66.00;;;;;;5102770;28;20820;-37
2021/11/14 06:25:36;;;;;;;1.00;0.80;;;16.40;66.10;;;;;;5103105;28;20034;-38
2021/11/14 06:28:03;;;;;;;1.25;0.85;;;16.50;66.50;;;;;;5101312;28;20054;-37
2021/11/14 06:30:29;;;;;;;1.08;0.80;;;16.60;66.40;;;;;;5102831;28;20115;-37
2021/11/14 06:32:56;;;;;;;1.38;0.98;;;16.60;66.00;;;;;;5101234;28;20060;-37
2021/11/14 06:35:23;;;;;;;1.67;1.10;;;16.50;65.90;;;;;;5102937;28;20024;-37
2021/11/14 06:37:49;;;;;;;1.80;1.00;;;16.50;66.00;;;;;;5101402;28;20032;-37
2021/11/14 06:40:15;;;;;;;2.10;1.00;;;16.40;65.90;;;;;;5093576;28;20071;-38
2021/11/14 06:42:41;;;;;;;1.05;0.77;;;16.40;66.00;;;;;;5102331;28;20024;-37
2021/11/14 06:45:08;;;;;;;1.55;0.80;;;16.50;66.20;;;;;;5101116;28;20449;-37
2021/11/14 06:47:36;;;;;;;0.90;0.70;;;16.60;66.30;;;;;;5089167;28;20021;-38
2021/11/14 06:50:03;;;;;;;2.65;0.80;;;16.60;66.00;;;;;;5085419;28;20040;-38
2021/11/14 06:52:29;;;;;;;0.70;0.60;;;16.50;65.80;;;;;;5086453;28;20046;-37
2021/11/14 06:54:55;;;;;;;1.33;0.80;;;16.50;65.80;;;;;;5086720;28;20036;-38
2021/11/14 06:57:21;;;;;;;0.80;0.80;;;16.40;65.80;;;;;;5086281;28;20056;-38
2021/11/14 06:59:48;;;;;;;0.93;0.70;;;16.40;65.90;;;;;;5085077;28;20074;-38
2021/11/14 07:02:14;;;;;;;1.17;0.73;;;16.40;66.00;;;;;;5087372;28;20028;-38
2021/11/14 07:04:40;;;;;;;1.13;0.90;;;16.50;66.30;;;;;;5086417;28;20032;-38
2021/11/14 07:07:06;;;;;;;1.13;0.75;;;16.50;66.10;;;;;;5086379;28;20087;-39
2021/11/14 07:09:32;;;;;;;1.02;0.73;;;16.60;66.00;;;;;;5095849;28;20036;-39
2021/11/14 07:11:59;;;;;;;0.93;0.60;;;16.50;65.80;;;;;;5086128;28;20028;-39
2021/11/14 07:14:25;;;;;;;1.33;0.85;;;16.40;65.80;;;;;;5085969;28;20036;-38
2021/11/14 07:16:52;;;;;;;1.33;0.68;;;16.40;65.90;;;;;;5093830;28;20049;-38
2021/11/14 07:19:18;;;;;;;1.40;0.80;;;16.40;66.00;;;;;;5106630;28;20028;-38
2021/11/14 07:21:45;;;;;;;0.70;0.50;;;16.50;67.00;;;;;;5106429;28;20016;-38
2021/11/14 07:24:11;;;;;;;0.97;0.63;;;16.50;66.30;;;;;;5106148;28;20035;-38
2021/11/14 07:26:37;;;;;;;0.90;0.57;;;16.60;66.70;;;;;;5106291;28;20603;-38
2021/11/14 07:29:04;;;;;;;1.17;0.70;;;16.50;65.90;;;;;;5106064;28;20032;-38
2021/11/14 07:31:30;;;;;;;0.90;0.70;;;16.50;65.80;;;;;;5106382;28;20108;-39
2021/11/14 07:33:56;;;;;;;1.70;0.80;;;16.40;65.90;;;;;;5106159;28;20032;-38
2021/11/14 07:36:22;;;;;;;0.68;0.68;;;16.40;65.90;;;;;;5106137;28;20024;-39
2021/11/14 07:38:49;;;;;;;0.75;0.70;;;16.40;66.10;;;;;;5097133;28;20032;-38
2021/11/14 07:41:15;;;;;;;0.60;0.60;;;16.50;66.30;;;;;;5105190;28;20127;-40
2021/11/14 07:43:41;;;;;;;0.70;0.60;;;16.50;66.00;;;;;;5104138;28;20657;-38
2021/11/14 07:46:07;;;;;;;0.95;0.70;;;16.50;65.80;;;;;;5104553;28;20078;-38
2021/11/14 07:48:34;;;;;;;1.15;0.73;;;16.50;65.80;;;;;;5084326;28;20028;-38
2021/11/14 07:51:01;;;;;;;1.08;0.80;;;16.40;65.80;;;;;;5086670;28;20032;-38
2021/11/14 07:53:28;;;;;;;0.88;0.70;;;16.40;65.90;;;;;;5086790;28;20477;-38
2021/11/14 07:55:54;;;;;;;1.00;0.70;;;16.40;66.10;;;;;;5085495;28;20041;-39
2021/11/14 07:58:21;;;;;;;1.15;0.88;;;16.50;66.30;;;;;;5067397;28;20103;-38
2021/11/14 08:00:47;;;;;;;1.00;0.75;;;16.60;66.10;;;;;;5085323;28;20039;-38
2021/11/14 08:03:13;;;;;;;1.00;0.80;;;16.50;65.90;;;;;;5085194;28;20020;-38
2021/11/14 08:05:40;;;;;;;1.65;0.80;;;16.50;65.80;;;;;;5085292;28;20031;-38
2021/11/14 08:08:06;;;;;;;0.98;0.80;;;16.40;65.90;;;;;;5084236;28;20135;-39
2021/11/14 08:10:33;;;;;;;0.70;0.70;;;16.40;65.90;;;;;;5098974;28;20062;-38
2021/11/14 08:13:00;;;;;;;0.95;0.85;;;16.40;66.10;;;;;;5105072;28;20048;-38
2021/11/14 08:15:26;;;;;;;;;;;16.50;66.30;;;;;;5105660;28;20063;-38
2021/11/14 08:17:52;;;;;;;1.20;0.80;;;16.60;66.00;;;;;;5105462;28;20365;-38
2021/11/14 08:20:18;;;;;;;0.82;0.70;;;16.50;65.80;;;;;;5105319;28;20020;-38
2021/11/14 08:22:45;;;;;;;0.70;0.70;;;16.50;65.80;;;;;;5105332;28;20092;-38
2021/11/14 08:25:11;;;;;;;1.57;0.70;;;16.40;65.80;;;;;;5105091;28;20028;-38
2021/11/14 08:27:37;;;;;;;1.63;0.90;;;16.40;65.90;;;;;;5104954;28;20035;-38
2021/11/14 08:30:05;;;;;;;1.00;0.52;;;16.40;65.90;;;;;;5105017;28;20043;-38
2021/11/14 08:32:31;;;;;;;0.82;0.63;;;16.40;66.20;;;;;;5105241;28;20020;-38
2021/11/14 08:34:57;;;;;;;1.02;0.82;;;16.50;66.30;;;;;;5104882;28;20035;-38
2021/11/14 08:37:24;;;;;;;0.75;0.63;;;16.60;66.00;;;;;;5105034;28;20043;-38
2021/11/14 08:39:50;;;;;;;0.70;0.60;;;16.50;65.80;;;;;;5098581;28;20039;-38
2021/11/14 08:42:16;;;;;;;0.88;0.73;;;16.50;65.90;;;;;;5104523;28;20024;-38
2021/11/14 08:44:42;;;;;;;1.50;0.70;;;16.40;65.80;;;;;;5104703;28;20024;-38
2021/11/14 08:47:09;;;;;;;1.17;0.80;;;16.40;65.90;;;;;;5094662;28;20036;-38
2021/11/14 08:49:35;;;;;;;0.73;0.60;;;16.40;66.10;;;;;;5084672;28;20036;-38
2021/11/14 08:52:01;;;;;;;1.35;0.90;;;16.50;66.30;;;;;;5083250;28;20028;-38
2021/11/14 08:54:27;;;;;;;0.70;0.70;;;16.50;65.90;;;;;;5084186;28;20120;-38
2021/11/14 08:56:53;;;;;;;1.00;0.73;;;16.50;65.80;;;;;;5083987;28;20025;-38
2021/11/14 08:59:19;;;;;;;0.77;0.65;;;16.40;65.70;;;;;;5084211;28;20036;-39
2021/11/14 09:01:46;;;;;;;1.13;0.70;;;16.40;65.80;;;;;;5084257;28;20040;-38
2021/11/14 09:04:12;;;;;;;0.70;0.60;;;16.40;65.80;;;;;;5084064;28;20064;-38
2021/11/14 09:06:38;;;;;;;0.85;0.70;;;16.40;66.00;;;;;;5084196;28;20041;-38
2021/11/14 09:09:10;;;;;;;1.08;0.80;;;16.50;66.10;;;;;;5085818;28;20096;-39
2021/11/14 09:11:43;;;;;;;0.93;0.60;;;16.50;66.90;;;;;;5102365;28;20020;-39
2021/11/14 09:14:10;;;;;;;0.85;0.60;;;16.60;65.80;;;;;;5104165;28;20032;-38
2021/11/14 09:16:36;;;;;;;0.80;0.70;;;16.50;65.70;;;;;;5082729;28;20016;-38
2021/11/14 09:19:04;;;;;;;2.28;0.90;;;16.40;65.70;;;;;;5083960;28;20059;-38
2021/11/14 09:21:30;;;;;;;;;;;16.40;65.80;;;;;;5083147;28;20024;-38
2021/11/14 09:23:56;;;;;;;1.33;0.90;;;16.30;65.80;;;;;;5097399;28;19908;-38
2021/11/14 09:26:22;;;;;;;0.95;0.70;;;16.40;66.00;;;;;;5103857;28;20028;-38
2021/11/14 09:28:48;;;;;;;0.70;0.70;;;16.50;66.20;;;;;;5102388;28;20057;-38
2021/11/14 09:31:14;;;;;;;0.73;0.70;;;16.50;66.10;;;;;;5104076;28;20070;-38
2021/11/14 09:33:41;;;;;;;1.27;1.00;;;16.50;65.80;;;;;;5103975;28;20028;-38
2021/11/14 09:36:08;;;;;;;1.10;0.75;;;16.50;65.80;;;;;;5103684;28;20047;-40
2021/11/14 09:38:35;;;;;;;1.10;0.80;;;16.40;65.70;;;;;;5096099;28;20052;-39
2021/11/14 09:41:03;;;;;;;0.70;0.70;;;16.40;65.80;;;;;;5083603;28;20047;-38
2021/11/14 09:43:31;;;;;;;1.10;0.70;;;16.30;65.90;;;;;;5081870;28;20020;-38
2021/11/14 09:45:57;;;;;;;1.27;0.70;;;16.40;66.10;;;;;;5083279;28;20663;-38
2021/11/14 09:48:24;;;;;;;1.10;0.73;;;16.50;66.20;;;;;;5100139;28;20039;-38
2021/11/14 09:50:51;;;;;;;0.80;0.68;;;16.50;65.90;;;;;;5103661;28;20030;-38
2021/11/14 09:53:17;;;;;;;1.17;0.77;;;16.50;65.80;;;;;;5103581;28;20028;-38
2021/11/14 09:55:43;;;;;;;0.90;0.70;;;16.40;65.70;;;;;;5101985;28;20106;-38
2021/11/14 09:58:09;;;;;;;1.25;1.00;;;16.40;65.80;;;;;;5103322;28;20024;-38
2021/11/14 10:00:41;;;;;;;0.88;0.77;;;16.40;65.80;;;;;;5101977;28;20040;-38
2021/11/14 10:03:07;;;;;;;0.90;0.80;;;16.40;66.00;;;;;;5103386;28;20388;-38
2021/11/14 10:05:34;;;;;;;1.05;0.80;;;16.50;66.20;;;;;;5101813;28;20088;-38
2021/11/14 10:08:03;;;;;;;0.82;0.70;;;16.50;66.10;;;;;;5100945;28;20059;-37
2021/11/14 10:10:36;;;;;;;0.98;0.75;;;16.50;65.80;;;;;;5095953;28;20035;-37
2021/11/14 10:13:31;;;;;;;0.63;0.60;;;16.50;65.80;;;;;;5102989;28;20027;-38
2021/11/14 10:16:11;;;;;;;1.30;1.10;;;16.40;65.80;;;;;;5102998;28;20032;-38
2021/11/14 10:18:39;;;;;;;0.85;0.80;;;16.40;65.90;;;;;;5101917;28;20031;-38
2021/11/14 10:21:05;;;;;;;0.90;0.75;;;16.40;66.00;;;;;;5103368;28;20202;-38
2021/11/14 10:23:32;;;;;;;0.80;0.80;;;16.50;66.10;;;;;;5102342;28;20024;-38
2021/11/14 10:26:02;;;;;;;1.00;0.80;;;16.50;66.20;;;;;;5102821;28;20024;-38
2021/11/14 10:28:28;;;;;;;1.33;0.80;;;16.50;65.80;;;;;;5101600;28;20051;-38
2021/11/14 10:30:55;;;;;;;0.90;0.73;;;16.50;65.80;;;;;;5102912;28;20094;-38
2021/11/14 10:33:21;;;;;;;1.10;1.00;;;16.40;65.70;;;;;;5103368;28;20028;-38
2021/11/14 10:35:50;;;;;;;1.13;0.80;;;16.40;65.80;;;;;;5101458;28;20050;-38
2021/11/14 10:38:18;;;;;;;1.00;0.90;;;16.30;65.80;;;;;;5102705;28;20031;-38
2021/11/14 10:41:05;;;;;;;1.15;0.80;;;16.40;66.00;;;;;;5087975;28;20024;-38
2021/11/14 10:43:32;;;;;;;1.00;0.80;;;16.50;66.10;;;;;;5082492;28;20136;-38
2021/11/14 10:45:58;;;;;;;0.80;0.70;;;16.50;65.80;;;;;;5083903;28;20044;-38
2021/11/14 10:48:26;;;;;;;0.70;0.63;;;16.50;65.70;;;;;;5102936;28;20039;-38
2021/11/14 10:50:57;;;;;;;1.50;0.80;;;16.50;65.70;;;;;;5102930;28;20036;-38
2021/11/14 10:53:25;;;;;;;0.73;0.70;;;16.40;65.70;;;;;;5102964;28;20021;-38
2021/11/14 10:55:53;;;;;;;0.77;0.75;;;16.30;65.70;;;;;;5101307;28;20028;-38
2021/11/14 10:58:23;;;;;;;0.63;0.60;;;16.40;65.90;;;;;;5101380;28;20032;-38
2021/11/14 11:00:51;;;;;;;1.15;0.80;;;16.50;66.10;;;;;;5101343;28;20040;-38
2021/11/14 11:03:18;;;;;;;1.00;0.80;;;16.50;66.00;;;;;;5102857;28;20043;-38
2021/11/14 11:05:44;;;;;;;0.93;0.77;;;16.50;65.60;;;;;;5101043;28;20024;-38
2021/11/14 11:08:11;;;;;;;0.88;0.70;;;16.50;65.60;;;;;;5098633;28;20040;-38
2021/11/14 11:10:37;;;;;;;;;;;16.40;65.60;;;;;;5096982;28;20044;-38
2021/11/14 11:13:05;;;;;;;1.00;0.88;;;16.40;65.70;;;;;;5102484;28;19907;-38
2021/11/14 11:15:52;;;;;;;1.23;0.90;;;16.30;65.70;;;;;;5102959;28;20051;-38
2021/11/14 11:18:19;;;;;;;0.73;0.70;;;16.40;65.90;;;;;;5083749;28;20484;-38
2021/11/14 11:20:49;;;;;;;;;;;16.50;66.10;;;;;;5101694;28;20092;-38
2021/11/14 11:23:16;;;;;;;1.50;0.68;;;16.60;65.80;;;;;;5102510;28;19915;-38
2021/11/14 11:25:48;;;;;;;0.60;0.60;;;16.50;65.60;;;;;;5101277;28;20115;-38
2021/11/14 11:28:33;;;;;;;0.80;0.80;;;16.50;65.60;;;;;;5102038;28;20035;-38
2021/11/14 11:31:04;;;;;;;0.85;0.75;;;16.40;65.70;;;;;;5102544;28;20028;-43
2021/11/14 11:33:32;;;;;;;0.70;0.70;;;16.30;65.70;;;;;;5102539;28;20048;-38
2021/11/14 11:35:59;;;;;;;0.70;0.63;;;16.40;65.80;;;;;;5106199;28;20028;-38
2021/11/14 11:38:26;;;;;;;0.83;0.70;;;16.50;66.00;;;;;;5104529;28;20058;-38
2021/11/14 11:40:56;;;;;;;1.10;0.90;;;16.50;65.90;;;;;;5090008;28;20245;-38
2021/11/14 11:43:23;;;;;;;0.77;0.70;;;16.50;65.50;;;;;;5084497;28;20088;-38
2021/11/14 11:45:50;;;;;;;1.25;1.00;;;16.50;65.50;;;;;;5085881;28;20024;-38
2021/11/14 11:48:24;;;;;;;2.15;0.70;;;16.40;65.50;;;;;;5102937;28;20036;-38
2021/11/14 11:50:51;;;;;;;0.90;0.70;;;16.40;65.70;;;;;;5103138;28;20057;-38
2021/11/14 11:53:24;;;;;;;1.13;0.70;;;16.30;65.60;;;;;;5106107;28;20024;-38
2021/11/14 11:56:12;;;;;;;0.80;0.80;;;16.40;65.80;;;;;;5106102;28;20350;-38
2021/11/14 11:58:44;;;;;;;0.80;0.80;;;16.50;66.00;;;;;;5105580;28;20024;-38
2021/11/14 12:01:28;;;;;;;0.77;0.60;;;16.50;65.70;;;;;;5105930;28;20051;-38
2021/11/14 12:03:56;;;;;;;1.10;0.80;;;16.50;65.50;;;;;;5105890;28;20036;-38
2021/11/14 12:06:22;;;;;;;;;;;16.40;65.50;;;;;;5104732;28;20048;-38
2021/11/14 12:08:51;;;;;;;1.05;0.80;;;16.40;65.60;;;;;;5104590;28;19926;-38
2021/11/14 12:11:33;;;;;;;1.05;0.95;;;16.30;65.50;;;;;;5084650;28;20024;-38
2021/11/14 12:14:25;;;;;;;0.80;0.80;;;16.30;65.70;;;;;;5084934;28;20029;-38
2021/11/14 12:17:05;;;;;;;0.80;0.70;;;16.40;65.90;;;;;;5093104;28;20032;-38
2021/11/14 12:19:33;;;;;;;1.05;0.90;;;16.50;65.50;;;;;;5105472;28;20028;-38
2021/11/14 12:22:10;;;;;;;0.95;0.80;;;16.50;65.40;;;;;;5105547;28;20069;-38
2021/11/14 12:24:58;;;;;;;0.80;0.80;;;16.40;65.30;;;;;;5105331;28;20028;-38
2021/11/14 12:27:35;;;;;;;1.25;0.90;;;16.30;65.40;;;;;;5105268;28;20062;-38
2021/11/14 12:30:06;;;;;;;0.80;0.60;;;16.30;65.50;;;;;;5104080;28;20088;-38
2021/11/14 12:32:42;;;;;;;0.90;0.60;;;16.40;65.70;;;;;;5105165;28;20332;-38
2021/11/14 12:35:13;;;;;;;0.68;0.65;;;16.50;65.80;;;;;;5104991;28;20024;-38
2021/11/14 12:38:00;;;;;;;0.60;0.60;;;16.50;65.40;;;;;;5105345;28;20066;-38
2021/11/14 12:40:33;;;;;;;0.70;0.70;;;16.40;65.20;;;;;;5097268;28;20807;-38
2021/11/14 12:43:23;;;;;;;1.08;0.98;;;16.40;65.30;;;;;;5104942;28;20024;-38
2021/11/14 12:45:57;;;;;;;0.90;0.70;;;16.30;65.30;;;;;;5104245;28;20020;-38
2021/11/14 12:48:28;;;;;;;0.80;0.80;;;16.40;65.50;;;;;;5084734;28;20038;-38
2021/11/14 12:51:18;;;;;;;1.00;0.77;;;16.50;65.70;;;;;;5087785;28;20027;-38
2021/11/14 12:53:48;;;;;;;1.58;0.80;;;16.50;65.40;;;;;;5104698;28;20020;-38